sensor_id;sensor_type;location;lat;lon;timestamp;pressure;altitude;pressure_sealevel;temperature;humidity
7052;BME280;3567;52.444;13.556;2023-07-31T00:00:29;100775.13;;;15.51;100.00
7052;BME280;3567;52.444;13.556;2023-07-31T00:02:55;100762.19;;;15.53;100.00
7052;BME280;3567;52.444;13.556;2023-07-31T00:05:20;100767.53;;;15.48;100.00
7052;BME280;3567;52.444;13.556;2023-07-31T00:07:47;100767.25;;;15.44;100.00
7052;BME280;3567;52.444;13.556;2023-07-31T00:10:13;100763.47;;;15.40;100.00
7052;BME280;3567;52.444;13.556;2023-07-31T00:12:40;100763.97;;;15.37;100.00
7052;BME280;3567;52.444;13.556;2023-07-31T00:15:07;100764.50;;;15.34;100.00
7052;BME280;3567;52.444;13.556;2023-07-31T00:17:33;100763.13;;;15.32;100.00
7052;BME280;3567;52.444;13.556;2023-07-31T00:19:58;100768.47;;;15.27;100.00
7052;BME280;3567;52.444;13.556;2023-07-31T00:22:23;100763.84;;;15.22;100.00
7052;BME280;3567;52.444;13.556;2023-07-31T00:24:49;100760.31;;;15.16;100.00
7052;BME280;3567;52.444;13.556;2023-07-31T00:27:14;100760.03;;;15.13;100.00
7052;BME280;3567;52.444;13.556;2023-07-31T00:29:40;100757.03;;;15.09;100.00
7052;BME280;3567;52.444;13.556;2023-07-31T00:32:06;100741.66;;;15.10;100.00
7052;BME280;3567;52.444;13.556;2023-07-31T00:34:31;100734.38;;;15.10;100.00
7052;BME280;3567;52.444;13.556;2023-07-31T00:36:56;100731.16;;;15.13;100.00
7052;BME280;3567;52.444;13.556;2023-07-31T00:39:22;100728.19;;;15.15;100.00
7052;BME280;3567;52.444;13.556;2023-07-31T00:41:47;100727.94;;;15.16;100.00
7052;BME280;3567;52.444;13.556;2023-07-31T00:44:12;100716.06;;;15.17;100.00
7052;BME280;3567;52.444;13.556;2023-07-31T00:46:38;100722.03;;;15.19;100.00
7052;BME280;3567;52.444;13.556;2023-07-31T00:49:04;100714.47;;;15.22;100.00
7052;BME280;3567;52.444;13.556;2023-07-31T00:51:30;100708.56;;;15.25;100.00
7052;BME280;3567;52.444;13.556;2023-07-31T00:53:55;100702.09;;;15.26;100.00
7052;BME280;3567;52.444;13.556;2023-07-31T00:56:22;100705.34;;;15.28;100.00
7052;BME280;3567;52.444;13.556;2023-07-31T00:58:47;100704.00;;;15.30;100.00
7052;BME280;3567;52.444;13.556;2023-07-31T01:01:13;100710.22;;;15.31;100.00
7052;BME280;3567;52.444;13.556;2023-07-31T01:03:38;100715.09;;;15.34;100.00
7052;BME280;3567;52.444;13.556;2023-07-31T01:09:05;100718.38;;;15.41;100.00
7052;BME280;3567;52.444;13.556;2023-07-31T01:11:40;100714.59;;;15.42;100.00
7052;BME280;3567;52.444;13.556;2023-07-31T01:14:08;100723.50;;;15.42;100.00
7052;BME280;3567;52.444;13.556;2023-07-31T01:16:33;100722.19;;;15.45;100.00
7052;BME280;3567;52.444;13.556;2023-07-31T01:18:58;100708.44;;;15.46;100.00
7052;BME280;3567;52.444;13.556;2023-07-31T01:27:05;100681.72;;;15.50;100.00
7052;BME280;3567;52.444;13.556;2023-07-31T01:29:56;100692.78;;;15.49;100.00
7052;BME280;3567;52.444;13.556;2023-07-31T01:32:28;100693.56;;;15.44;100.00
7052;BME280;3567;52.444;13.556;2023-07-31T01:34:54;100698.94;;;15.44;100.00
7052;BME280;3567;52.444;13.556;2023-07-31T01:37:20;100695.19;;;15.45;100.00
7052;BME280;3567;52.444;13.556;2023-07-31T01:39:45;100691.44;;;15.46;100.00
7052;BME280;3567;52.444;13.556;2023-07-31T01:42:10;100683.88;;;15.48;100.00
7052;BME280;3567;52.444;13.556;2023-07-31T01:44:36;100682.78;;;15.49;100.00
7052;BME280;3567;52.444;13.556;2023-07-31T01:47:01;100681.16;;;15.48;100.00
7052;BME280;3567;52.444;13.556;2023-07-31T01:49:26;100676.84;;;15.47;100.00
7052;BME280;3567;52.444;13.556;2023-07-31T01:51:52;100675.75;;;15.48;100.00
7052;BME280;3567;52.444;13.556;2023-07-31T01:54:17;100674.16;;;15.47;100.00
7052;BME280;3567;52.444;13.556;2023-07-31T01:56:43;100672.75;;;15.44;100.00
7052;BME280;3567;52.444;13.556;2023-07-31T01:59:08;100662.81;;;15.45;100.00
7052;BME280;3567;52.444;13.556;2023-07-31T02:01:33;100661.72;;;15.46;100.00
7052;BME280;3567;52.444;13.556;2023-07-31T02:03:59;100657.41;;;15.45;100.00
7052;BME280;3567;52.444;13.556;2023-07-31T02:06:24;100662.81;;;15.45;100.00
7052;BME280;3567;52.444;13.556;2023-07-31T02:08:49;100668.75;;;15.47;100.00
7052;BME280;3567;52.444;13.556;2023-07-31T02:11:15;100670.63;;;15.46;100.00
7052;BME280;3567;52.444;13.556;2023-07-31T02:13:40;100667.13;;;15.46;100.00
7052;BME280;3567;52.444;13.556;2023-07-31T02:16:05;100667.13;;;15.46;100.00
7052;BME280;3567;52.444;13.556;2023-07-31T02:18:31;100670.06;;;15.44;100.00
7052;BME280;3567;52.444;13.556;2023-07-31T02:20:56;100662.81;;;15.45;100.00
7052;BME280;3567;52.444;13.556;2023-07-31T02:23:21;100658.47;;;15.44;100.00
7052;BME280;3567;52.444;13.556;2023-07-31T02:25:47;100654.72;;;15.45;100.00
7052;BME280;3567;52.444;13.556;2023-07-31T02:28:12;100659.28;;;15.44;100.00
7052;BME280;3567;52.444;13.556;2023-07-31T02:30:38;100659.84;;;15.46;100.00
7052;BME280;3567;52.444;13.556;2023-07-31T02:33:04;100655.25;;;15.47;100.00
7052;BME280;3567;52.444;13.556;2023-07-31T02:35:30;100652.00;;;15.45;100.00
7052;BME280;3567;52.444;13.556;2023-07-31T02:37:55;100642.84;;;15.46;100.00
7052;BME280;3567;52.444;13.556;2023-07-31T02:40:20;100647.44;;;15.45;100.00
7052;BME280;3567;52.444;13.556;2023-07-31T02:42:46;100649.03;;;15.46;100.00
7052;BME280;3567;52.444;13.556;2023-07-31T02:45:11;100645.25;;;15.48;100.00
7052;BME280;3567;52.444;13.556;2023-07-31T02:47:37;100642.28;;;15.49;100.00
7052;BME280;3567;52.444;13.556;2023-07-31T02:50:05;100640.41;;;15.50;100.00
7052;BME280;3567;52.444;13.556;2023-07-31T02:52:31;100643.38;;;15.48;100.00
7052;BME280;3567;52.444;13.556;2023-07-31T02:54:57;100640.13;;;15.46;100.00
7052;BME280;3567;52.444;13.556;2023-07-31T02:57:23;100637.44;;;15.46;100.00
7052;BME280;3567;52.444;13.556;2023-07-31T02:59:48;100639.56;;;15.44;100.00
7052;BME280;3567;52.444;13.556;2023-07-31T03:02:13;100642.00;;;15.40;100.00
7052;BME280;3567;52.444;13.556;2023-07-31T03:04:39;100642.78;;;15.36;100.00
7052;BME280;3567;52.444;13.556;2023-07-31T03:07:05;100640.06;;;15.31;100.00
7052;BME280;3567;52.444;13.556;2023-07-31T03:09:30;100633.56;;;15.27;100.00
7052;BME280;3567;52.444;13.556;2023-07-31T03:11:56;100640.03;;;15.26;100.00
7052;BME280;3567;52.444;13.556;2023-07-31T03:14:21;100634.91;;;15.24;100.00
7052;BME280;3567;52.444;13.556;2023-07-31T03:16:46;100634.34;;;15.22;100.00
7052;BME280;3567;52.444;13.556;2023-07-31T03:19:12;100637.31;;;15.20;100.00
7052;BME280;3567;52.444;13.556;2023-07-31T03:21:37;100630.56;;;15.18;100.00
7052;BME280;3567;52.444;13.556;2023-07-31T03:24:03;100625.97;;;15.18;100.00
7052;BME280;3567;52.444;13.556;2023-07-31T03:26:31;100627.28;;;15.16;100.00
7052;BME280;3567;52.444;13.556;2023-07-31T03:28:56;100624.31;;;15.17;100.00
7052;BME280;3567;52.444;13.556;2023-07-31T03:31:22;100624.31;;;15.17;100.00
7052;BME280;3567;52.444;13.556;2023-07-31T03:33:47;100617.88;;;15.18;100.00
7052;BME280;3567;52.444;13.556;2023-07-31T03:36:12;100624.31;;;15.17;100.00
7052;BME280;3567;52.444;13.556;2023-07-31T03:38:38;100616.00;;;15.19;100.00
7052;BME280;3567;52.444;13.556;2023-07-31T03:41:03;100623.53;;;15.22;100.00
7052;BME280;3567;52.444;13.556;2023-07-31T03:43:30;100612.75;;;15.22;100.00
7052;BME280;3567;52.444;13.556;2023-07-31T03:45:56;100616.81;;;15.25;100.00
7052;BME280;3567;52.444;13.556;2023-07-31T03:48:21;100621.94;;;15.26;100.00
7052;BME280;3567;52.444;13.556;2023-07-31T03:50:46;100618.75;;;15.29;100.00
7052;BME280;3567;52.444;13.556;2023-07-31T03:53:12;100611.44;;;15.30;100.00
7052;BME280;3567;52.444;13.556;2023-07-31T03:55:37;100609.28;;;15.32;100.00
7052;BME280;3567;52.444;13.556;2023-07-31T03:58:02;100615.50;;;15.32;100.00
7052;BME280;3567;52.444;13.556;2023-07-31T04:00:28;100607.97;;;15.34;100.00
7052;BME280;3567;52.444;13.556;2023-07-31T04:02:53;100605.81;;;15.36;100.00
7052;BME280;3567;52.444;13.556;2023-07-31T04:05:19;100600.94;;;15.38;100.00
7052;BME280;3567;52.444;13.556;2023-07-31T04:07:44;100603.41;;;15.40;100.00
7052;BME280;3567;52.444;13.556;2023-07-31T04:10:09;100607.44;;;15.42;100.00
7052;BME280;3567;52.444;13.556;2023-07-31T04:12:35;100607.75;;;15.46;100.00
7052;BME280;3567;52.444;13.556;2023-07-31T04:15:00;100605.59;;;15.48;100.00
7052;BME280;3567;52.444;13.556;2023-07-31T04:17:26;100600.75;;;15.50;100.00
7052;BME280;3567;52.444;13.556;2023-07-31T04:19:51;100591.56;;;15.51;100.00
7052;BME280;3567;52.444;13.556;2023-07-31T04:22:16;100588.63;;;15.58;100.00
7052;BME280;3567;52.444;13.556;2023-07-31T04:24:42;100587.25;;;15.60;100.00
7052;BME280;3567;52.444;13.556;2023-07-31T04:27:07;100585.63;;;15.59;100.00
7052;BME280;3567;52.444;13.556;2023-07-31T04:29:32;100585.41;;;15.61;100.00
7052;BME280;3567;52.444;13.556;2023-07-31T04:31:58;100584.56;;;15.60;100.00
7052;BME280;3567;52.444;13.556;2023-07-31T04:34:23;100589.16;;;15.60;100.00
7052;BME280;3567;52.444;13.556;2023-07-31T04:36:49;100591.59;;;15.61;100.00
7052;BME280;3567;52.444;13.556;2023-07-31T04:39:14;100581.84;;;15.55;100.00
7052;BME280;3567;52.444;13.556;2023-07-31T04:41:39;100589.41;;;15.53;100.00
7052;BME280;3567;52.444;13.556;2023-07-31T04:44:05;100593.19;;;15.52;100.00
7052;BME280;3567;52.444;13.556;2023-07-31T04:46:30;100584.00;;;15.53;100.00
7052;BME280;3567;52.444;13.556;2023-07-31T04:48:56;100574.81;;;15.54;100.00
7052;BME280;3567;52.444;13.556;2023-07-31T04:51:21;100574.31;;;15.57;100.00
7052;BME280;3567;52.444;13.556;2023-07-31T04:53:49;100569.41;;;15.54;100.00
7052;BME280;3567;52.444;13.556;2023-07-31T04:56:15;100572.94;;;15.55;100.00
7052;BME280;3567;52.444;13.556;2023-07-31T04:58:41;100569.41;;;15.54;100.00
7052;BME280;3567;52.444;13.556;2023-07-31T05:01:06;100577.53;;;15.54;100.00
7052;BME280;3567;52.444;13.556;2023-07-31T05:03:31;100573.50;;;15.57;100.00
7052;BME280;3567;52.444;13.556;2023-07-31T05:05:57;100574.31;;;15.57;100.00
7052;BME280;3567;52.444;13.556;2023-07-31T05:08:22;100574.59;;;15.61;100.00
7052;BME280;3567;52.444;13.556;2023-07-31T05:10:48;100570.56;;;15.63;100.00
7052;BME280;3567;52.444;13.556;2023-07-31T05:13:13;100579.47;;;15.64;100.00
7052;BME280;3567;52.444;13.556;2023-07-31T05:15:41;100568.41;;;15.70;100.00
7052;BME280;3567;52.444;13.556;2023-07-31T05:18:06;100571.94;;;15.76;100.00
7052;BME280;3567;52.444;13.556;2023-07-31T05:20:31;100568.44;;;15.81;100.00
7052;BME280;3567;52.444;13.556;2023-07-31T05:22:57;100566.31;;;15.83;100.00
7052;BME280;3567;52.444;13.556;2023-07-31T05:25:22;100572.78;;;15.87;100.00
7052;BME280;3567;52.444;13.556;2023-07-31T05:27:47;100569.00;;;15.88;100.00
7052;BME280;3567;52.444;13.556;2023-07-31T05:30:13;100570.34;;;15.90;100.00
7052;BME280;3567;52.444;13.556;2023-07-31T05:32:38;100569.53;;;15.90;100.00
7052;BME280;3567;52.444;13.556;2023-07-31T05:35:04;100570.63;;;15.89;100.00
7052;BME280;3567;52.444;13.556;2023-07-31T05:37:29;100556.56;;;15.87;100.00
7052;BME280;3567;52.444;13.556;2023-07-31T05:39:55;100564.13;;;15.85;100.00
7052;BME280;3567;52.444;13.556;2023-07-31T05:42:20;100564.66;;;15.82;100.00
7052;BME280;3567;52.444;13.556;2023-07-31T05:44:45;100560.09;;;15.82;100.00
7052;BME280;3567;52.444;13.556;2023-07-31T05:47:12;100553.31;;;15.85;100.00
7052;BME280;3567;52.444;13.556;2023-07-31T05:49:37;100559.25;;;15.87;100.00
7052;BME280;3567;52.444;13.556;2023-07-31T05:52:03;100557.41;;;15.87;100.00
7052;BME280;3567;52.444;13.556;2023-07-31T05:54:28;100554.69;;;15.87;100.00
7052;BME280;3567;52.444;13.556;2023-07-31T05:56:53;100555.22;;;15.89;100.00
7052;BME280;3567;52.444;13.556;2023-07-31T05:59:19;100553.88;;;15.92;100.00
7052;BME280;3567;52.444;13.556;2023-07-31T06:01:44;100561.97;;;15.97;100.00
7052;BME280;3567;52.444;13.556;2023-07-31T06:04:09;100553.34;;;16.00;100.00
7052;BME280;3567;52.444;13.556;2023-07-31T06:06:35;100548.47;;;16.02;100.00
7052;BME280;3567;52.444;13.556;2023-07-31T06:09:00;100551.75;;;16.04;100.00
7052;BME280;3567;52.444;13.556;2023-07-31T06:11:26;100551.19;;;16.07;100.00
7052;BME280;3567;52.444;13.556;2023-07-31T06:13:51;100558.50;;;16.12;100.00
7052;BME280;3567;52.444;13.556;2023-07-31T06:16:16;100555.50;;;16.13;100.00
7052;BME280;3567;52.444;13.556;2023-07-31T06:18:42;100551.75;;;16.14;100.00
7052;BME280;3567;52.444;13.556;2023-07-31T06:21:08;100543.66;;;16.14;100.00
7052;BME280;3567;52.444;13.556;2023-07-31T06:23:34;100542.56;;;16.10;100.00
7052;BME280;3567;52.444;13.556;2023-07-31T06:25:59;100539.84;;;16.10;100.00
7052;BME280;3567;52.444;13.556;2023-07-31T06:28:28;100552.28;;;16.11;100.00
7052;BME280;3567;52.444;13.556;2023-07-31T06:30:54;100550.91;;;16.14;100.00
7052;BME280;3567;52.444;13.556;2023-07-31T06:33:20;100545.50;;;16.14;100.00
7052;BME280;3567;52.444;13.556;2023-07-31T06:35:45;100539.28;;;16.13;100.00
7052;BME280;3567;52.444;13.556;2023-07-31T06:38:11;100548.22;;;16.19;100.00
7052;BME280;3567;52.444;13.556;2023-07-31T06:40:36;100548.50;;;16.22;100.00
7052;BME280;3567;52.444;13.556;2023-07-31T06:43:09;100540.94;;;16.24;100.00
7052;BME280;3567;52.444;13.556;2023-07-31T06:45:35;100546.88;;;16.32;100.00
7052;BME280;3567;52.444;13.556;2023-07-31T06:48:01;100545.50;;;16.39;100.00
7052;BME280;3567;52.444;13.556;2023-07-31T06:50:31;100547.41;;;16.49;100.00
7052;BME280;3567;52.444;13.556;2023-07-31T06:52:56;100539.28;;;16.54;100.00
7052;BME280;3567;52.444;13.556;2023-07-31T06:55:22;100536.56;;;16.54;100.00
7052;BME280;3567;52.444;13.556;2023-07-31T06:57:50;100536.06;;;16.52;100.00
7052;BME280;3567;52.444;13.556;2023-07-31T07:00:17;100538.19;;;16.50;100.00
7052;BME280;3567;52.444;13.556;2023-07-31T07:02:43;100545.50;;;16.49;100.00
7052;BME280;3567;52.444;13.556;2023-07-31T07:05:09;100542.56;;;16.41;100.00
7052;BME280;3567;52.444;13.556;2023-07-31T07:07:35;100533.34;;;16.37;100.00
7052;BME280;3567;52.444;13.556;2023-07-31T07:10:00;100537.69;;;16.28;100.00
7052;BME280;3567;52.444;13.556;2023-07-31T07:12:28;100537.69;;;16.22;100.00
7052;BME280;3567;52.444;13.556;2023-07-31T07:14:54;100535.53;;;16.14;100.00
7052;BME280;3567;52.444;13.556;2023-07-31T07:17:19;100544.16;;;16.11;100.00
7052;BME280;3567;52.444;13.556;2023-07-31T07:19:45;100546.34;;;16.04;100.00
7052;BME280;3567;52.444;13.556;2023-07-31T07:22:11;100543.34;;;16.01;100.00
7052;BME280;3567;52.444;13.556;2023-07-31T07:24:36;100542.25;;;15.96;100.00
7052;BME280;3567;52.444;13.556;2023-07-31T07:27:02;100546.84;;;15.96;100.00
7052;BME280;3567;52.444;13.556;2023-07-31T07:29:27;100543.88;;;15.97;100.00
7052;BME280;3567;52.444;13.556;2023-07-31T07:31:53;100548.47;;;16.02;100.00
7052;BME280;3567;52.444;13.556;2023-07-31T07:34:18;100541.19;;;16.03;100.00
7052;BME280;3567;52.444;13.556;2023-07-31T07:36:44;100535.78;;;16.08;100.00
7052;BME280;3567;52.444;13.556;2023-07-31T07:39:10;100536.06;;;16.16;100.00
7052;BME280;3567;52.444;13.556;2023-07-31T07:41:36;100533.66;;;16.25;100.00
7052;BME280;3567;52.444;13.556;2023-07-31T07:44:02;100530.94;;;16.35;100.00
7052;BME280;3567;52.444;13.556;2023-07-31T07:46:27;100525.75;;;16.49;100.00
7052;BME280;3567;52.444;13.556;2023-07-31T07:48:52;100532.75;;;16.65;100.00
7052;BME280;3567;52.444;13.556;2023-07-31T07:51:18;100527.94;;;16.72;100.00
7052;BME280;3567;52.444;13.556;2023-07-31T07:53:43;100526.00;;;16.83;100.00
7052;BME280;3567;52.444;13.556;2023-07-31T07:56:08;100521.91;;;16.96;100.00
7052;BME280;3567;52.444;13.556;2023-07-31T07:58:34;100515.34;;;17.07;100.00
7052;BME280;3567;52.444;13.556;2023-07-31T08:01:02;100519.91;;;17.22;100.00
7052;BME280;3567;52.444;13.556;2023-07-31T08:03:27;100506.59;;;17.25;100.00
7052;BME280;3567;52.444;13.556;2023-07-31T08:05:58;100520.69;;;17.27;100.00
7052;BME280;3567;52.444;13.556;2023-07-31T08:08:23;100515.81;;;17.24;100.00
7052;BME280;3567;52.444;13.556;2023-07-31T08:10:48;100518.53;;;17.19;100.00
7052;BME280;3567;52.444;13.556;2023-07-31T08:13:14;100515.84;;;17.19;100.00
7052;BME280;3567;52.444;13.556;2023-07-31T08:15:41;100519.88;;;17.27;100.00
7052;BME280;3567;52.444;13.556;2023-07-31T08:18:07;100528.25;;;17.25;100.00
7052;BME280;3567;52.444;13.556;2023-07-31T08:20:32;100520.72;;;17.17;100.00
7052;BME280;3567;52.444;13.556;2023-07-31T08:22:57;100516.69;;;17.10;100.00
7052;BME280;3567;52.444;13.556;2023-07-31T08:25:23;100508.56;;;17.10;100.00
7052;BME280;3567;52.444;13.556;2023-07-31T08:27:48;100508.06;;;17.02;100.00
7052;BME280;3567;52.444;13.556;2023-07-31T08:30:14;100505.38;;;16.97;100.00
7052;BME280;3567;52.444;13.556;2023-07-31T08:32:39;100506.75;;;16.95;100.00
7052;BME280;3567;52.444;13.556;2023-07-31T08:35:04;100502.44;;;16.94;100.00
7052;BME280;3567;52.444;13.556;2023-07-31T08:37:30;100497.53;;;17.01;100.00
7052;BME280;3567;52.444;13.556;2023-07-31T08:39:55;100491.75;;;17.18;100.00
7052;BME280;3567;52.444;13.556;2023-07-31T08:42:21;100499.03;;;17.27;100.00
7052;BME280;3567;52.444;13.556;2023-07-31T08:44:46;100497.09;;;17.33;100.00
7052;BME280;3567;52.444;13.556;2023-07-31T08:47:13;100500.03;;;17.42;100.00
7052;BME280;3567;52.444;13.556;2023-07-31T08:49:39;100500.00;;;17.47;100.00
7052;BME280;3567;52.444;13.556;2023-07-31T08:52:07;100491.63;;;17.43;100.00
7052;BME280;3567;52.444;13.556;2023-07-31T08:54:32;100498.91;;;17.48;100.00
7052;BME280;3567;52.444;13.556;2023-07-31T08:56:58;100499.97;;;17.52;100.00
7052;BME280;3567;52.444;13.556;2023-07-31T08:59:26;100500.47;;;17.59;100.00
7052;BME280;3567;52.444;13.556;2023-07-31T09:01:55;100491.81;;;17.57;100.00
7052;BME280;3567;52.444;13.556;2023-07-31T09:04:23;100501.59;;;17.53;100.00
7052;BME280;3567;52.444;13.556;2023-07-31T09:06:49;100496.72;;;17.50;100.00
7052;BME280;3567;52.444;13.556;2023-07-31T09:09:15;100510.78;;;17.52;100.00
7052;BME280;3567;52.444;13.556;2023-07-31T09:11:40;100508.59;;;17.59;100.00
7052;BME280;3567;52.444;13.556;2023-07-31T09:14:06;100504.44;;;17.72;100.00
7052;BME280;3567;52.444;13.556;2023-07-31T09:16:34;100505.47;;;17.86;100.00
7052;BME280;3567;52.444;13.556;2023-07-31T09:18:59;100495.66;;;17.95;100.00
7052;BME280;3567;52.444;13.556;2023-07-31T09:21:27;100499.63;;;18.03;100.00
7052;BME280;3567;52.444;13.556;2023-07-31T09:23:53;100500.44;;;18.03;100.00
7052;BME280;3567;52.444;13.556;2023-07-31T09:26:32;100505.53;;;18.10;100.00
7052;BME280;3567;52.444;13.556;2023-07-31T09:28:59;100514.41;;;18.16;100.00
7052;BME280;3567;52.444;13.556;2023-07-31T09:31:43;100501.41;;;18.18;100.00
7052;BME280;3567;52.444;13.556;2023-07-31T09:34:09;100507.16;;;18.11;100.00
7052;BME280;3567;52.444;13.556;2023-07-31T09:36:47;100499.66;;;17.98;100.00
7052;BME280;3567;52.444;13.556;2023-07-31T09:39:13;100504.63;;;17.91;100.00
7052;BME280;3567;52.444;13.556;2023-07-31T09:41:48;100501.41;;;17.84;100.00
7052;BME280;3567;52.444;13.556;2023-07-31T09:44:18;100495.78;;;17.70;100.00
7052;BME280;3567;52.444;13.556;2023-07-31T09:46:43;100492.56;;;17.63;100.00
7052;BME280;3567;52.444;13.556;2023-07-31T09:49:10;100495.56;;;17.61;100.00
7052;BME280;3567;52.444;13.556;2023-07-31T09:51:37;100493.44;;;17.58;100.00
7052;BME280;3567;52.444;13.556;2023-07-31T09:54:16;100488.03;;;17.58;100.00
7052;BME280;3567;52.444;13.556;2023-07-31T09:56:46;100494.72;;;17.66;100.00
7052;BME280;3567;52.444;13.556;2023-07-31T09:59:17;100490.09;;;17.71;100.00
7052;BME280;3567;52.444;13.556;2023-07-31T10:01:44;100496.00;;;17.78;100.00
7052;BME280;3567;52.444;13.556;2023-07-31T10:04:11;100482.97;;;17.86;100.00
7052;BME280;3567;52.444;13.556;2023-07-31T10:06:38;100485.06;;;17.94;100.00
7052;BME280;3567;52.444;13.556;2023-07-31T10:09:09;100477.44;;;18.01;100.00
7052;BME280;3567;52.444;13.556;2023-07-31T10:11:43;100470.88;;;18.07;100.00
7052;BME280;3567;52.444;13.556;2023-07-31T10:14:11;100473.81;;;18.11;100.00
7052;BME280;3567;52.444;13.556;2023-07-31T10:16:38;100465.88;;;18.19;100.00
7052;BME280;3567;52.444;13.556;2023-07-31T10:19:05;100469.00;;;18.31;100.00
7052;BME280;3567;52.444;13.556;2023-07-31T10:21:31;100472.16;;;18.44;100.00
7052;BME280;3567;52.444;13.556;2023-07-31T10:24:02;100470.75;;;18.46;100.00
7052;BME280;3567;52.444;13.556;2023-07-31T10:26:28;100474.63;;;18.40;100.00
7052;BME280;3567;52.444;13.556;2023-07-31T10:28:54;100464.06;;;18.39;100.00
7052;BME280;3567;52.444;13.556;2023-07-31T10:31:21;100455.13;;;18.38;100.00
7052;BME280;3567;52.444;13.556;2023-07-31T10:33:46;100466.78;;;18.39;100.00
7052;BME280;3567;52.444;13.556;2023-07-31T10:36:18;100467.00;;;18.42;100.00
7052;BME280;3567;52.444;13.556;2023-07-31T10:38:45;100464.81;;;18.44;100.00
7052;BME280;3567;52.444;13.556;2023-07-31T10:41:11;100463.97;;;18.49;100.00
7052;BME280;3567;52.444;13.556;2023-07-31T10:43:37;100461.47;;;18.52;100.00
7052;BME280;3567;52.444;13.556;2023-07-31T10:46:11;100460.09;;;18.55;100.00
7052;BME280;3567;52.444;13.556;2023-07-31T10:48:38;100456.72;;;18.68;100.00
7052;BME280;3567;52.444;13.556;2023-07-31T10:51:11;100456.22;;;18.85;100.00
7052;BME280;3567;52.444;13.556;2023-07-31T10:53:38;100443.38;;;19.15;100.00
7052;BME280;3567;52.444;13.556;2023-07-31T10:56:05;100437.69;;;19.49;100.00
7052;BME280;3567;52.444;13.556;2023-07-31T10:58:31;100423.31;;;20.00;100.00
7052;BME280;3567;52.444;13.556;2023-07-31T11:01:05;100427.94;;;20.59;100.00
7052;BME280;3567;52.444;13.556;2023-07-31T11:03:45;100424.16;;;21.47;98.29
7052;BME280;3567;52.444;13.556;2023-07-31T11:06:12;100430.38;;;22.14;93.95
7052;BME280;3567;52.444;13.556;2023-07-31T11:08:45;100420.38;;;22.10;90.35
7052;BME280;3567;52.444;13.556;2023-07-31T11:11:12;100421.63;;;22.04;89.02
7052;BME280;3567;52.444;13.556;2023-07-31T11:13:51;100419.66;;;22.18;88.23
7052;BME280;3567;52.444;13.556;2023-07-31T11:16:24;100413.50;;;22.43;88.10
7052;BME280;3567;52.444;13.556;2023-07-31T11:18:51;100406.66;;;22.63;84.97
7052;BME280;3567;52.444;13.556;2023-07-31T11:21:19;100406.00;;;22.49;82.99
7052;BME280;3567;52.444;13.556;2023-07-31T11:23:49;100412.53;;;22.39;81.71
7052;BME280;3567;52.444;13.556;2023-07-31T11:26:15;100405.25;;;22.26;80.93
7052;BME280;3567;52.444;13.556;2023-07-31T11:28:41;100408.63;;;22.23;80.83
7052;BME280;3567;52.444;13.556;2023-07-31T11:31:09;100403.78;;;22.20;81.42
7052;BME280;3567;52.444;13.556;2023-07-31T11:33:35;100390.28;;;22.15;81.07
7052;BME280;3567;52.444;13.556;2023-07-31T11:36:00;100403.63;;;22.16;80.67
7052;BME280;3567;52.444;13.556;2023-07-31T11:38:27;100396.91;;;22.22;79.00
7052;BME280;3567;52.444;13.556;2023-07-31T11:40:54;100391.84;;;22.47;77.35
7052;BME280;3567;52.444;13.556;2023-07-31T11:43:21;100390.59;;;22.53;75.55
7052;BME280;3567;52.444;13.556;2023-07-31T11:45:52;100391.19;;;22.41;75.07
7052;BME280;3567;52.444;13.556;2023-07-31T11:48:25;100396.28;;;22.34;75.84
7052;BME280;3567;52.444;13.556;2023-07-31T11:50:53;100394.31;;;22.26;75.55
7052;BME280;3567;52.444;13.556;2023-07-31T11:53:29;100382.75;;;22.20;75.89
7052;BME280;3567;52.444;13.556;2023-07-31T11:55:58;100397.41;;;22.02;75.21
7052;BME280;3567;52.444;13.556;2023-07-31T11:58:24;100383.56;;;21.90;75.47
7052;BME280;3567;52.444;13.556;2023-07-31T12:00:50;100385.97;;;21.91;75.78
7052;BME280;3567;52.444;13.556;2023-07-31T12:03:15;100382.50;;;21.77;74.82
7052;BME280;3567;52.444;13.556;2023-07-31T12:05:41;100388.19;;;21.58;76.41
7052;BME280;3567;52.444;13.556;2023-07-31T12:08:11;100386.81;;;21.47;76.99
7052;BME280;3567;52.444;13.556;2023-07-31T12:10:37;100379.97;;;21.36;76.10
7052;BME280;3567;52.444;13.556;2023-07-31T12:13:04;100381.41;;;21.33;76.44
7052;BME280;3567;52.444;13.556;2023-07-31T12:15:37;100378.56;;;21.38;76.47
7052;BME280;3567;52.444;13.556;2023-07-31T12:18:08;100376.53;;;21.44;76.32
7052;BME280;3567;52.444;13.556;2023-07-31T12:20:34;100376.47;;;21.58;76.79
7052;BME280;3567;52.444;13.556;2023-07-31T12:22:59;100374.72;;;21.62;76.38
7052;BME280;3567;52.444;13.556;2023-07-31T12:25:43;100373.88;;;21.53;75.55
7052;BME280;3567;52.444;13.556;2023-07-31T12:28:08;100367.22;;;21.45;75.96
7052;BME280;3567;52.444;13.556;2023-07-31T12:30:38;100366.50;;;21.53;76.97
7052;BME280;3567;52.444;13.556;2023-07-31T12:33:07;100364.72;;;21.49;76.76
7052;BME280;3567;52.444;13.556;2023-07-31T12:35:38;100372.53;;;21.41;78.03
7052;BME280;3567;52.444;13.556;2023-07-31T12:38:03;100370.41;;;21.38;78.71
7052;BME280;3567;52.444;13.556;2023-07-31T12:40:29;100366.06;;;21.37;78.33
7052;BME280;3567;52.444;13.556;2023-07-31T12:42:55;100370.94;;;21.27;78.17
7052;BME280;3567;52.444;13.556;2023-07-31T12:45:20;100361.44;;;21.24;78.71
7052;BME280;3567;52.444;13.556;2023-07-31T12:47:46;100356.41;;;21.31;78.76
7052;BME280;3567;52.444;13.556;2023-07-31T12:50:12;100337.50;;;21.35;78.07
7052;BME280;3567;52.444;13.556;2023-07-31T12:52:37;100347.09;;;21.55;77.44
7052;BME280;3567;52.444;13.556;2023-07-31T12:55:03;100344.47;;;21.72;76.67
7052;BME280;3567;52.444;13.556;2023-07-31T12:57:29;100346.44;;;21.80;76.75